createdAt,value
2018-09-12T00:02:32.340Z,5.70
2018-09-12T00:06:40.657Z,5.13
2018-09-12T00:10:48.954Z,8.33
2018-09-12T00:14:57.504Z,6.23
2018-09-12T00:19:06.334Z,9.37
2018-09-12T00:23:14.618Z,6.03
2018-09-12T00:27:22.908Z,9.43
2018-09-12T00:31:31.197Z,8.90
2018-09-12T00:35:39.459Z,6.20
2018-09-12T00:39:47.760Z,6.80
2018-09-12T00:43:56.074Z,5.77
2018-09-12T00:48:04.393Z,9.53
2018-09-12T00:52:12.697Z,10.70
2018-09-12T00:56:20.993Z,5.80
2018-09-12T01:00:29.304Z,7.87
2018-09-12T01:04:37.630Z,8.30
2018-09-12T01:08:45.924Z,7.70
2018-09-12T01:12:54.262Z,14.10
2018-09-12T01:17:02.565Z,9.33
2018-09-12T01:21:10.841Z,6.37
2018-09-12T01:25:19.169Z,7.05
2018-09-12T01:29:27.925Z,6.37
2018-09-12T01:33:36.251Z,7.10
2018-09-12T01:37:44.581Z,8.20
2018-09-12T01:41:52.893Z,6.30
2018-09-12T01:46:01.197Z,10.83
2018-09-12T01:50:09.501Z,8.27
2018-09-12T01:54:18.617Z,8.33
2018-09-12T01:58:26.944Z,9.70
2018-09-12T02:02:35.264Z,6.47
2018-09-12T02:06:43.545Z,7.80
2018-09-12T02:10:51.857Z,7.80
2018-09-12T02:15:00.172Z,9.07
2018-09-12T02:19:08.455Z,7.27
2018-09-12T02:23:16.820Z,8.50
2018-09-12T02:27:25.164Z,7.23
2018-09-12T02:31:33.442Z,7.43
2018-09-12T02:35:47.249Z,10.80
2018-09-12T02:39:55.590Z,14.57
2018-09-12T02:44:03.895Z,8.43
2018-09-12T02:48:12.199Z,8.97
2018-09-12T02:52:20.540Z,8.47
2018-09-12T02:56:28.873Z,10.50
2018-09-12T03:00:37.160Z,7.10
2018-09-12T03:04:45.440Z,8.20
2018-09-12T03:08:53.720Z,9.20
2018-09-12T03:13:01.979Z,8.90
2018-09-12T03:17:10.946Z,7.93
2018-09-12T03:21:19.253Z,7.13
2018-09-12T03:25:27.613Z,8.00
2018-09-12T03:29:35.921Z,12.10
2018-09-12T03:33:44.236Z,13.30
2018-09-12T03:37:52.563Z,9.73
2018-09-12T03:42:00.940Z,9.83
2018-09-12T03:46:09.234Z,11.70
2018-09-12T03:50:17.554Z,8.97
2018-09-12T03:54:25.814Z,8.53
2018-09-12T03:58:34.138Z,9.80
2018-09-12T04:02:42.472Z,10.93
2018-09-12T04:06:50.741Z,9.47
2018-09-12T04:10:59.076Z,13.07
2018-09-12T04:15:07.381Z,11.53
2018-09-12T04:19:15.678Z,10.67
2018-09-12T04:23:23.986Z,9.30
2018-09-12T04:27:32.314Z,10.90
2018-09-12T04:31:40.625Z,11.30
2018-09-12T04:35:48.931Z,8.37
2018-09-12T04:39:57.228Z,10.40
2018-09-12T04:44:05.569Z,8.60
2018-09-12T04:48:13.927Z,11.50
2018-09-12T04:52:22.290Z,9.00
2018-09-12T04:56:30.565Z,7.70
2018-09-12T05:00:38.900Z,10.53
2018-09-12T05:04:47.213Z,12.93
2018-09-12T05:08:55.601Z,9.30
2018-09-12T05:13:03.853Z,9.60
2018-09-12T05:17:12.194Z,11.93
2018-09-12T05:21:20.533Z,9.60
2018-09-12T05:25:28.575Z,12.00
2018-09-12T05:29:36.915Z,9.40
2018-09-12T05:33:45.204Z,10.53
2018-09-12T05:37:53.504Z,12.13
2018-09-12T05:42:01.877Z,12.13
2018-09-12T05:46:10.173Z,8.70
2018-09-12T05:50:18.486Z,11.30
2018-09-12T05:54:26.754Z,17.33
2018-09-12T05:58:35.083Z,10.70
2018-09-12T06:02:43.444Z,14.97
2018-09-12T06:06:52.040Z,10.93
2018-09-12T06:11:00.386Z,13.93
2018-09-12T06:15:08.720Z,15.27
2018-09-12T06:19:17.116Z,12.23
2018-09-12T06:23:25.409Z,11.47
2018-09-12T06:27:34.882Z,11.50
2018-09-12T06:31:43.219Z,10.30
2018-09-12T06:35:51.510Z,12.30
2018-09-12T06:39:59.801Z,12.50
2018-09-12T06:44:08.480Z,11.20
2018-09-12T06:48:16.815Z,15.43
2018-09-12T06:52:25.106Z,12.73
2018-09-12T06:56:33.937Z,16.23
2018-09-12T07:00:42.333Z,12.50
2018-09-12T07:04:50.625Z,13.13
2018-09-12T07:08:58.915Z,15.30
2018-09-12T07:13:07.209Z,14.50
2018-09-12T07:17:15.529Z,13.67
2018-09-12T07:21:23.842Z,13.40
2018-09-12T07:25:32.254Z,18.00
2018-09-12T07:29:41.136Z,19.40
2018-09-12T07:33:49.478Z,20.90
2018-09-12T07:37:57.803Z,17.73
2018-09-12T07:42:06.156Z,19.43
2018-09-12T07:46:14.436Z,19.65
2018-09-12T07:50:22.746Z,20.13
2018-09-12T07:54:31.286Z,26.27
2018-09-12T07:58:39.593Z,23.23
2018-09-12T08:02:47.963Z,28.13
2018-09-12T08:06:56.298Z,23.87
2018-09-12T08:11:04.637Z,27.47
2018-09-12T08:15:12.982Z,24.23
2018-09-12T08:19:21.336Z,23.67
2018-09-12T08:23:29.680Z,26.57
2018-09-12T08:27:38.021Z,26.30
2018-09-12T08:31:46.466Z,25.30
2018-09-12T08:35:54.792Z,29.83
2018-09-12T08:40:03.226Z,26.67
2018-09-12T08:44:11.600Z,25.87
2018-09-12T08:48:19.962Z,26.27
2018-09-12T08:52:28.290Z,27.87
2018-09-12T08:56:36.716Z,25.17
2018-09-12T09:00:45.536Z,23.83
2018-09-12T09:04:53.884Z,24.00
2018-09-12T09:09:02.208Z,26.03
2018-09-12T09:13:10.556Z,26.83
2018-09-12T09:17:18.930Z,28.03
2018-09-12T09:21:27.255Z,23.05
2018-09-12T09:25:35.703Z,29.03
2018-09-12T09:29:44.072Z,27.10
2018-09-12T09:33:52.370Z,21.60
2018-09-12T09:38:00.671Z,28.83
2018-09-12T09:42:08.979Z,19.73
2018-09-12T09:46:17.298Z,20.30
2018-09-12T09:50:25.583Z,15.20
2018-09-12T09:54:33.903Z,19.60
2018-09-12T09:58:42.197Z,17.70
2018-09-12T10:02:55.978Z,17.40
2018-09-12T10:07:09.589Z,16.97
2018-09-12T10:11:17.671Z,19.03
2018-09-12T10:15:25.936Z,18.17
2018-09-12T10:19:34.253Z,18.57
2018-09-12T10:23:42.706Z,21.43
2018-09-12T10:27:51.093Z,19.57
2018-09-12T10:32:00.496Z,17.00
2018-09-12T10:36:08.877Z,20.00
2018-09-12T10:40:17.243Z,19.13
2018-09-12T10:44:25.559Z,23.97
2018-09-12T10:48:33.891Z,18.33
2018-09-12T10:52:42.245Z,16.80
2018-09-12T10:56:50.787Z,20.48
2018-09-12T11:00:59.224Z,20.23
2018-09-12T11:05:07.534Z,20.90
2018-09-12T11:09:15.888Z,18.70
2018-09-12T11:13:24.251Z,20.20
2018-09-12T11:17:32.614Z,22.77
2018-09-12T11:21:40.970Z,7.87
2018-09-12T11:25:49.340Z,8.33
2018-09-12T11:29:57.657Z,7.73
2018-09-12T11:34:05.961Z,16.47
2018-09-12T11:38:14.268Z,9.90
2018-09-12T11:42:22.565Z,7.63
2018-09-12T11:46:30.878Z,8.90
2018-09-12T11:50:39.221Z,6.50
2018-09-12T11:54:47.510Z,4.10
2018-09-12T11:58:55.839Z,4.87
2018-09-12T12:03:04.155Z,6.10
2018-09-12T12:07:12.426Z,7.17
2018-09-12T12:11:20.715Z,5.83
2018-09-12T12:15:29.072Z,9.23
2018-09-12T12:19:37.347Z,6.30
2018-09-12T12:23:45.642Z,5.10
2018-09-12T12:27:54.336Z,6.63
2018-09-12T12:32:04.358Z,10.40
2018-09-12T12:36:12.737Z,8.70
2018-09-12T12:40:21.262Z,10.73
2018-09-12T12:44:29.588Z,8.03
2018-09-12T12:48:37.942Z,9.13
2018-09-12T12:52:46.415Z,8.30
2018-09-12T12:56:54.741Z,10.43
2018-09-12T13:01:03.060Z,10.80
2018-09-12T13:05:11.342Z,8.90
2018-09-12T13:09:19.621Z,8.63
2018-09-12T13:13:27.891Z,9.40
2018-09-12T13:17:36.164Z,8.03
2018-09-12T13:21:44.608Z,10.00
2018-09-12T13:25:52.775Z,10.90
2018-09-12T13:30:01.108Z,10.03
2018-09-12T13:34:09.534Z,9.87
2018-09-12T13:38:17.860Z,10.27
2018-09-12T13:42:26.217Z,12.97
2018-09-12T13:46:34.604Z,13.53
2018-09-12T13:50:42.941Z,8.47
2018-09-12T13:54:51.320Z,7.80
2018-09-12T13:58:59.646Z,7.63
2018-09-12T14:03:07.977Z,13.53
2018-09-12T14:07:16.285Z,7.23
2018-09-12T14:11:24.917Z,6.33
2018-09-12T14:15:33.242Z,6.00
2018-09-12T14:19:41.551Z,5.60
2018-09-12T14:23:49.596Z,5.90
2018-09-12T14:27:57.910Z,7.70
2018-09-12T14:32:06.196Z,7.27
2018-09-12T14:36:14.550Z,9.90
2018-09-12T14:40:22.904Z,7.30
2018-09-12T14:44:31.209Z,6.60
2018-09-12T14:48:39.601Z,6.37
2018-09-12T14:52:47.949Z,8.20
2018-09-12T14:56:56.234Z,7.30
2018-09-12T15:01:04.562Z,11.10
2018-09-12T15:05:12.873Z,8.48
2018-09-12T15:09:21.198Z,7.73
2018-09-12T15:13:29.492Z,7.40
2018-09-12T15:17:37.803Z,9.03
2018-09-12T15:21:46.155Z,8.53
2018-09-12T15:25:54.490Z,8.63
2018-09-12T15:30:02.855Z,7.60
2018-09-12T15:34:11.185Z,8.10
2018-09-12T15:38:19.492Z,7.60
2018-09-12T15:42:28.053Z,11.27
2018-09-12T15:46:36.350Z,9.53
2018-09-12T15:50:44.646Z,7.47
2018-09-12T15:54:52.984Z,9.03
2018-09-12T15:59:01.301Z,6.93
2018-09-12T16:03:09.619Z,7.63
2018-09-12T16:07:17.895Z,10.10
2018-09-12T16:11:26.211Z,8.67
2018-09-12T16:15:34.678Z,7.20
2018-09-12T16:19:42.938Z,9.13
2018-09-12T16:23:51.351Z,7.30
2018-09-12T16:27:59.682Z,7.87
2018-09-12T16:32:08.117Z,6.87
2018-09-12T16:36:16.470Z,7.83
2018-09-12T16:40:24.853Z,7.30
2018-09-12T16:44:33.139Z,7.60
2018-09-12T16:48:41.449Z,7.40
2018-09-12T16:52:49.742Z,7.30
2018-09-12T16:56:58.069Z,7.50
2018-09-12T17:01:06.405Z,6.57
2018-09-12T17:05:14.727Z,7.13
2018-09-12T17:09:23.566Z,8.27
2018-09-12T17:13:31.942Z,6.60
2018-09-12T17:17:41.223Z,6.07
2018-09-12T17:21:49.729Z,6.00
2018-09-12T17:25:57.969Z,7.03
2018-09-12T17:30:06.323Z,5.97
2018-09-12T17:34:14.592Z,6.10
2018-09-12T17:38:22.883Z,4.50
2018-09-12T17:42:31.162Z,5.97
2018-09-12T17:46:39.459Z,6.83
2018-09-12T17:50:54.369Z,6.53
2018-09-12T17:55:02.724Z,6.00
2018-09-12T17:59:11.012Z,6.10
2018-09-12T18:03:19.285Z,6.20
2018-09-12T18:07:27.642Z,9.03
2018-09-12T18:11:35.946Z,8.43
2018-09-12T18:15:44.228Z,7.13
2018-09-12T18:19:52.576Z,5.90
2018-09-12T18:24:00.897Z,7.63
2018-09-12T18:28:09.221Z,8.10
2018-09-12T18:32:17.589Z,7.53
2018-09-12T18:36:25.922Z,8.83
2018-09-12T18:40:34.299Z,7.90
2018-09-12T18:44:42.611Z,9.40
2018-09-12T18:48:51.254Z,7.40
2018-09-12T18:52:59.981Z,7.70
2018-09-12T18:57:08.322Z,8.20
2018-09-12T19:01:16.626Z,8.30
2018-09-12T19:05:24.932Z,7.83
2018-09-12T19:09:33.253Z,8.23
2018-09-12T19:13:41.580Z,9.47
2018-09-12T19:17:49.867Z,9.90
2018-09-12T19:21:58.222Z,13.22
2018-09-12T19:26:06.585Z,9.07
2018-09-12T19:30:14.919Z,7.70
2018-09-12T19:34:23.192Z,9.00
2018-09-12T19:38:32.037Z,9.10
2018-09-12T19:42:40.416Z,7.20
2018-09-12T19:46:48.742Z,11.63
2018-09-12T19:50:57.066Z,10.03
2018-09-12T19:55:05.382Z,8.63
2018-09-12T19:59:13.752Z,9.17
2018-09-12T20:03:22.075Z,7.87
2018-09-12T20:07:31.648Z,8.23
2018-09-12T20:11:40.366Z,8.83
2018-09-12T20:15:48.755Z,9.53
2018-09-12T20:19:57.098Z,8.53
2018-09-12T20:24:05.612Z,10.40
2018-09-12T20:28:13.977Z,9.20
2018-09-12T20:32:22.269Z,9.20
2018-09-12T20:36:30.588Z,10.77
2018-09-12T20:40:38.907Z,8.70
2018-09-12T20:44:47.219Z,9.23
2018-09-12T20:48:55.502Z,7.30
2018-09-12T20:53:03.874Z,9.53
2018-09-12T20:57:12.182Z,7.78
2018-09-12T21:01:20.491Z,7.80
2018-09-12T21:05:28.758Z,9.43
2018-09-12T21:09:37.067Z,12.43
2018-09-12T21:13:45.357Z,7.83
2018-09-12T21:17:53.774Z,7.63
2018-09-12T21:22:02.080Z,11.40
2018-09-12T21:26:10.369Z,9.60
2018-09-12T21:30:18.691Z,7.00
2018-09-12T21:34:26.988Z,7.40
2018-09-12T21:38:35.287Z,12.17
2018-09-12T21:42:43.607Z,10.33
2018-09-12T21:46:51.876Z,6.33
2018-09-12T21:51:00.231Z,6.10
2018-09-12T21:55:08.508Z,5.80
2018-09-12T21:59:16.837Z,7.53
2018-09-12T22:03:25.126Z,6.97
2018-09-12T22:07:33.535Z,10.27
2018-09-12T22:11:41.803Z,6.00
2018-09-12T22:15:50.113Z,7.40
2018-09-12T22:19:58.407Z,4.90
2018-09-12T22:24:06.711Z,7.33
2018-09-12T22:28:15.025Z,7.77
2018-09-12T22:32:23.387Z,7.83
2018-09-12T22:36:32.127Z,6.07
2018-09-12T22:40:40.420Z,5.97
2018-09-12T22:44:48.736Z,6.73
2018-09-12T22:48:56.988Z,6.70
2018-09-12T22:53:05.257Z,6.00
2018-09-12T22:57:13.549Z,5.90
2018-09-12T23:01:21.888Z,8.47
2018-09-12T23:05:30.183Z,7.43
2018-09-12T23:09:38.472Z,10.80
2018-09-12T23:13:46.855Z,7.30
2018-09-12T23:17:55.132Z,9.93
2018-09-12T23:22:03.993Z,7.57
2018-09-12T23:26:12.277Z,6.30
2018-09-12T23:30:20.642Z,6.50
2018-09-12T23:34:28.969Z,8.53
2018-09-12T23:38:37.304Z,7.23
2018-09-12T23:42:45.667Z,6.33
2018-09-12T23:46:54.005Z,6.43
2018-09-12T23:51:02.362Z,7.03
2018-09-12T23:55:10.687Z,8.87
2018-09-12T23:59:19.027Z,7.37
